sensor_id;sensor_type;location;lat;lon;timestamp;pressure;altitude;pressure_sealevel;temperature
80581;BMP180;1474;51.460;7.150;2023-07-13T00:01:51;100493.00;;;16.00
80581;BMP180;1474;51.460;7.150;2023-07-13T00:04:21;100500.00;;;15.90
80581;BMP180;1474;51.460;7.150;2023-07-13T00:06:48;100503.00;;;15.80
80581;BMP180;1474;51.460;7.150;2023-07-13T00:09:17;100503.00;;;15.70
80581;BMP180;1474;51.460;7.150;2023-07-13T00:11:45;100502.00;;;15.80
80581;BMP180;1474;51.460;7.150;2023-07-13T00:14:13;100506.00;;;15.80
80581;BMP180;1474;51.460;7.150;2023-07-13T00:16:41;100502.00;;;15.80
80581;BMP180;1474;51.460;7.150;2023-07-13T00:19:10;100499.00;;;15.60
80581;BMP180;1474;51.460;7.150;2023-07-13T00:21:38;100492.00;;;15.60
80581;BMP180;1474;51.460;7.150;2023-07-13T00:24:05;100502.00;;;15.70
80581;BMP180;1474;51.460;7.150;2023-07-13T00:26:31;100498.00;;;15.70
80581;BMP180;1474;51.460;7.150;2023-07-13T00:28:58;100490.00;;;15.60
80581;BMP180;1474;51.460;7.150;2023-07-13T00:31:24;100500.00;;;15.60
80581;BMP180;1474;51.460;7.150;2023-07-13T00:33:50;100494.00;;;15.60
80581;BMP180;1474;51.460;7.150;2023-07-13T00:36:16;100495.00;;;15.50
80581;BMP180;1474;51.460;7.150;2023-07-13T00:38:42;100493.00;;;15.40
80581;BMP180;1474;51.460;7.150;2023-07-13T00:41:09;100496.00;;;15.50
80581;BMP180;1474;51.460;7.150;2023-07-13T00:43:35;100491.00;;;15.50
80581;BMP180;1474;51.460;7.150;2023-07-13T00:46:39;100495.00;;;15.40
80581;BMP180;1474;51.460;7.150;2023-07-13T00:49:10;100492.00;;;15.40
80581;BMP180;1474;51.460;7.150;2023-07-13T00:52:06;100485.00;;;15.50
80581;BMP180;1474;51.460;7.150;2023-07-13T00:54:45;100500.00;;;15.40
80581;BMP180;1474;51.460;7.150;2023-07-13T00:57:16;100486.00;;;15.40
80581;BMP180;1474;51.460;7.150;2023-07-13T00:59:48;100489.00;;;15.40
80581;BMP180;1474;51.460;7.150;2023-07-13T01:02:15;100492.00;;;15.30
80581;BMP180;1474;51.460;7.150;2023-07-13T01:04:41;100495.00;;;15.30
80581;BMP180;1474;51.460;7.150;2023-07-13T01:07:11;100493.00;;;15.30
80581;BMP180;1474;51.460;7.150;2023-07-13T01:09:37;100495.00;;;15.30
80581;BMP180;1474;51.460;7.150;2023-07-13T01:12:03;100490.00;;;15.30
80581;BMP180;1474;51.460;7.150;2023-07-13T01:14:29;100486.00;;;15.30
80581;BMP180;1474;51.460;7.150;2023-07-13T01:16:56;100481.00;;;15.20
80581;BMP180;1474;51.460;7.150;2023-07-13T01:19:44;100487.00;;;15.20
80581;BMP180;1474;51.460;7.150;2023-07-13T01:22:16;100484.00;;;15.20
80581;BMP180;1474;51.460;7.150;2023-07-13T01:24:47;100480.00;;;15.20
80581;BMP180;1474;51.460;7.150;2023-07-13T01:27:20;100486.00;;;15.00
80581;BMP180;1474;51.460;7.150;2023-07-13T01:29:46;100479.00;;;15.00
80581;BMP180;1474;51.460;7.150;2023-07-13T01:32:27;100477.00;;;14.90
80581;BMP180;1474;51.460;7.150;2023-07-13T01:34:54;100482.00;;;14.90
80581;BMP180;1474;51.460;7.150;2023-07-13T01:37:20;100477.00;;;14.90
80581;BMP180;1474;51.460;7.150;2023-07-13T01:39:47;100480.00;;;14.80
80581;BMP180;1474;51.460;7.150;2023-07-13T01:42:14;100479.00;;;14.90
80581;BMP180;1474;51.460;7.150;2023-07-13T01:44:40;100481.00;;;14.90
80581;BMP180;1474;51.460;7.150;2023-07-13T01:47:05;100483.00;;;15.00
80581;BMP180;1474;51.460;7.150;2023-07-13T01:49:31;100486.00;;;14.90
80581;BMP180;1474;51.460;7.150;2023-07-13T01:51:57;100481.00;;;14.80
80581;BMP180;1474;51.460;7.150;2023-07-13T01:54:23;100487.00;;;14.80
80581;BMP180;1474;51.460;7.150;2023-07-13T01:56:49;100493.00;;;14.80
80581;BMP180;1474;51.460;7.150;2023-07-13T01:59:15;100500.00;;;14.90
80581;BMP180;1474;51.460;7.150;2023-07-13T02:01:40;100493.00;;;14.80
80581;BMP180;1474;51.460;7.150;2023-07-13T02:04:06;100494.00;;;14.70
80581;BMP180;1474;51.460;7.150;2023-07-13T02:06:32;100498.00;;;14.70
80581;BMP180;1474;51.460;7.150;2023-07-13T02:08:58;100506.00;;;14.70
80581;BMP180;1474;51.460;7.150;2023-07-13T02:11:25;100493.00;;;14.70
80581;BMP180;1474;51.460;7.150;2023-07-13T02:13:59;100499.00;;;14.70
80581;BMP180;1474;51.460;7.150;2023-07-13T02:16:27;100501.00;;;14.70
80581;BMP180;1474;51.460;7.150;2023-07-13T02:18:52;100492.00;;;14.70
80581;BMP180;1474;51.460;7.150;2023-07-13T02:21:18;100489.00;;;14.70
80581;BMP180;1474;51.460;7.150;2023-07-13T02:23:44;100489.00;;;14.70
80581;BMP180;1474;51.460;7.150;2023-07-13T02:26:10;100493.00;;;14.60
80581;BMP180;1474;51.460;7.150;2023-07-13T02:28:35;100497.00;;;14.60
80581;BMP180;1474;51.460;7.150;2023-07-13T02:31:10;100489.00;;;14.60
80581;BMP180;1474;51.460;7.150;2023-07-13T02:33:36;100490.00;;;14.60
80581;BMP180;1474;51.460;7.150;2023-07-13T02:36:02;100495.00;;;14.60
80581;BMP180;1474;51.460;7.150;2023-07-13T02:38:34;100486.00;;;14.50
80581;BMP180;1474;51.460;7.150;2023-07-13T02:41:02;100493.00;;;14.50
80581;BMP180;1474;51.460;7.150;2023-07-13T02:43:28;100490.00;;;14.50
80581;BMP180;1474;51.460;7.150;2023-07-13T02:45:55;100478.00;;;14.60
80581;BMP180;1474;51.460;7.150;2023-07-13T02:48:21;100485.00;;;14.50
80581;BMP180;1474;51.460;7.150;2023-07-13T02:50:47;100478.00;;;14.50
80581;BMP180;1474;51.460;7.150;2023-07-13T02:53:13;100483.00;;;14.50
80581;BMP180;1474;51.460;7.150;2023-07-13T02:55:38;100488.00;;;14.50
80581;BMP180;1474;51.460;7.150;2023-07-13T02:58:06;100493.00;;;14.50
80581;BMP180;1474;51.460;7.150;2023-07-13T03:00:32;100490.00;;;14.50
80581;BMP180;1474;51.460;7.150;2023-07-13T03:02:58;100485.00;;;14.60
80581;BMP180;1474;51.460;7.150;2023-07-13T03:05:24;100493.00;;;14.50
80581;BMP180;1474;51.460;7.150;2023-07-13T03:07:50;100490.00;;;14.50
80581;BMP180;1474;51.460;7.150;2023-07-13T03:10:15;100505.00;;;14.50
80581;BMP180;1474;51.460;7.150;2023-07-13T03:12:42;100496.00;;;14.50
80581;BMP180;1474;51.460;7.150;2023-07-13T03:15:08;100502.00;;;14.50
80581;BMP180;1474;51.460;7.150;2023-07-13T03:17:34;100499.00;;;14.50
80581;BMP180;1474;51.460;7.150;2023-07-13T03:20:00;100490.00;;;14.40
80581;BMP180;1474;51.460;7.150;2023-07-13T03:22:26;100494.00;;;14.40
80581;BMP180;1474;51.460;7.150;2023-07-13T03:24:52;100499.00;;;14.30
80581;BMP180;1474;51.460;7.150;2023-07-13T03:27:18;100505.00;;;14.40
80581;BMP180;1474;51.460;7.150;2023-07-13T03:29:44;100508.00;;;14.40
80581;BMP180;1474;51.460;7.150;2023-07-13T03:32:10;100502.00;;;14.40
80581;BMP180;1474;51.460;7.150;2023-07-13T03:34:35;100502.00;;;14.40
80581;BMP180;1474;51.460;7.150;2023-07-13T03:37:01;100504.00;;;14.40
80581;BMP180;1474;51.460;7.150;2023-07-13T03:39:27;100500.00;;;14.40
80581;BMP180;1474;51.460;7.150;2023-07-13T03:41:53;100509.00;;;14.50
80581;BMP180;1474;51.460;7.150;2023-07-13T03:44:19;100511.00;;;14.50
80581;BMP180;1474;51.460;7.150;2023-07-13T03:46:45;100513.00;;;14.50
80581;BMP180;1474;51.460;7.150;2023-07-13T03:49:11;100511.00;;;14.50
80581;BMP180;1474;51.460;7.150;2023-07-13T03:51:37;100514.00;;;14.40
80581;BMP180;1474;51.460;7.150;2023-07-13T03:54:03;100522.00;;;14.50
80581;BMP180;1474;51.460;7.150;2023-07-13T03:56:30;100523.00;;;14.60
80581;BMP180;1474;51.460;7.150;2023-07-13T03:58:56;100526.00;;;14.60
80581;BMP180;1474;51.460;7.150;2023-07-13T04:01:24;100528.00;;;14.70
80581;BMP180;1474;51.460;7.150;2023-07-13T04:03:53;100530.00;;;14.70
80581;BMP180;1474;51.460;7.150;2023-07-13T04:06:23;100532.00;;;14.90
80581;BMP180;1474;51.460;7.150;2023-07-13T04:08:52;100539.00;;;14.80
80581;BMP180;1474;51.460;7.150;2023-07-13T04:11:20;100539.00;;;15.00
80581;BMP180;1474;51.460;7.150;2023-07-13T04:13:47;100537.00;;;15.00
80581;BMP180;1474;51.460;7.150;2023-07-13T04:16:15;100530.00;;;15.00
80581;BMP180;1474;51.460;7.150;2023-07-13T04:18:42;100539.00;;;15.00
80581;BMP180;1474;51.460;7.150;2023-07-13T04:21:08;100538.00;;;15.10
80581;BMP180;1474;51.460;7.150;2023-07-13T04:23:36;100542.00;;;15.10
80581;BMP180;1474;51.460;7.150;2023-07-13T04:26:02;100540.00;;;15.10
80581;BMP180;1474;51.460;7.150;2023-07-13T04:28:28;100540.00;;;15.00
80581;BMP180;1474;51.460;7.150;2023-07-13T04:30:54;100549.00;;;15.00
80581;BMP180;1474;51.460;7.150;2023-07-13T04:33:20;100544.00;;;15.10
80581;BMP180;1474;51.460;7.150;2023-07-13T04:35:54;100542.00;;;15.10
80581;BMP180;1474;51.460;7.150;2023-07-13T04:38:29;100553.00;;;15.10
80581;BMP180;1474;51.460;7.150;2023-07-13T04:41:02;100551.00;;;15.40
80581;BMP180;1474;51.460;7.150;2023-07-13T04:43:30;100556.00;;;15.50
80581;BMP180;1474;51.460;7.150;2023-07-13T04:45:57;100548.00;;;15.50
80581;BMP180;1474;51.460;7.150;2023-07-13T04:48:24;100558.00;;;15.60
80581;BMP180;1474;51.460;7.150;2023-07-13T04:50:57;100561.00;;;15.50
80581;BMP180;1474;51.460;7.150;2023-07-13T04:53:24;100569.00;;;15.40
80581;BMP180;1474;51.460;7.150;2023-07-13T04:55:50;100559.00;;;15.40
80581;BMP180;1474;51.460;7.150;2023-07-13T04:58:17;100562.00;;;15.50
80581;BMP180;1474;51.460;7.150;2023-07-13T05:00:43;100558.00;;;15.50
80581;BMP180;1474;51.460;7.150;2023-07-13T05:03:08;100550.00;;;15.60
80581;BMP180;1474;51.460;7.150;2023-07-13T05:05:35;100561.00;;;15.70
80581;BMP180;1474;51.460;7.150;2023-07-13T05:08:01;100556.00;;;15.80
80581;BMP180;1474;51.460;7.150;2023-07-13T05:10:26;100562.00;;;15.90
80581;BMP180;1474;51.460;7.150;2023-07-13T05:12:52;100562.00;;;15.90
80581;BMP180;1474;51.460;7.150;2023-07-13T05:15:21;100561.00;;;16.10
80581;BMP180;1474;51.460;7.150;2023-07-13T05:17:49;100563.00;;;16.20
80581;BMP180;1474;51.460;7.150;2023-07-13T05:20:16;100554.00;;;16.10
80581;BMP180;1474;51.460;7.150;2023-07-13T05:22:43;100568.00;;;16.30
80581;BMP180;1474;51.460;7.150;2023-07-13T05:25:09;100571.00;;;16.20
80581;BMP180;1474;51.460;7.150;2023-07-13T05:27:36;100568.00;;;16.10
80581;BMP180;1474;51.460;7.150;2023-07-13T05:30:03;100579.00;;;16.20
80581;BMP180;1474;51.460;7.150;2023-07-13T05:32:29;100578.00;;;16.20
80581;BMP180;1474;51.460;7.150;2023-07-13T05:34:55;100578.00;;;16.30
80581;BMP180;1474;51.460;7.150;2023-07-13T05:37:21;100583.00;;;16.40
80581;BMP180;1474;51.460;7.150;2023-07-13T05:39:47;100580.00;;;16.30
80581;BMP180;1474;51.460;7.150;2023-07-13T05:42:12;100577.00;;;16.40
80581;BMP180;1474;51.460;7.150;2023-07-13T05:44:38;100586.00;;;16.40
80581;BMP180;1474;51.460;7.150;2023-07-13T05:47:05;100583.00;;;16.60
80581;BMP180;1474;51.460;7.150;2023-07-13T05:49:30;100591.00;;;16.60
80581;BMP180;1474;51.460;7.150;2023-07-13T05:51:56;100590.00;;;16.70
80581;BMP180;1474;51.460;7.150;2023-07-13T05:54:22;100593.00;;;16.60
80581;BMP180;1474;51.460;7.150;2023-07-13T05:56:48;100577.00;;;16.70
80581;BMP180;1474;51.460;7.150;2023-07-13T05:59:14;100589.00;;;16.70
80581;BMP180;1474;51.460;7.150;2023-07-13T06:01:41;100601.00;;;16.50
80581;BMP180;1474;51.460;7.150;2023-07-13T06:04:06;100600.00;;;16.60
80581;BMP180;1474;51.460;7.150;2023-07-13T06:06:33;100604.00;;;16.70
80581;BMP180;1474;51.460;7.150;2023-07-13T06:08:59;100609.00;;;16.80
80581;BMP180;1474;51.460;7.150;2023-07-13T06:11:26;100610.00;;;16.80
80581;BMP180;1474;51.460;7.150;2023-07-13T06:13:53;100624.00;;;16.60
80581;BMP180;1474;51.460;7.150;2023-07-13T06:16:19;100619.00;;;16.60
80581;BMP180;1474;51.460;7.150;2023-07-13T06:18:45;100608.00;;;16.80
80581;BMP180;1474;51.460;7.150;2023-07-13T06:21:18;100602.00;;;17.00
80581;BMP180;1474;51.460;7.150;2023-07-13T06:23:49;100610.00;;;17.20
80581;BMP180;1474;51.460;7.150;2023-07-13T06:26:15;100614.00;;;17.40
80581;BMP180;1474;51.460;7.150;2023-07-13T06:28:41;100613.00;;;17.40
80581;BMP180;1474;51.460;7.150;2023-07-13T06:31:10;100611.00;;;17.50
80581;BMP180;1474;51.460;7.150;2023-07-13T06:33:36;100621.00;;;17.40
80581;BMP180;1474;51.460;7.150;2023-07-13T06:36:04;100615.00;;;17.40
80581;BMP180;1474;51.460;7.150;2023-07-13T06:38:31;100622.00;;;17.50
80581;BMP180;1474;51.460;7.150;2023-07-13T06:40:57;100625.00;;;17.60
80581;BMP180;1474;51.460;7.150;2023-07-13T06:43:24;100627.00;;;17.90
80581;BMP180;1474;51.460;7.150;2023-07-13T06:45:51;100624.00;;;17.90
80581;BMP180;1474;51.460;7.150;2023-07-13T06:48:18;100627.00;;;17.80
80581;BMP180;1474;51.460;7.150;2023-07-13T06:50:46;100627.00;;;17.70
80581;BMP180;1474;51.460;7.150;2023-07-13T06:53:13;100627.00;;;18.00
80581;BMP180;1474;51.460;7.150;2023-07-13T06:55:39;100638.00;;;17.90
80581;BMP180;1474;51.460;7.150;2023-07-13T06:58:05;100636.00;;;18.00
80581;BMP180;1474;51.460;7.150;2023-07-13T07:00:31;100641.00;;;18.10
80581;BMP180;1474;51.460;7.150;2023-07-13T07:02:57;100629.00;;;18.30
80581;BMP180;1474;51.460;7.150;2023-07-13T07:05:23;100637.00;;;18.20
80581;BMP180;1474;51.460;7.150;2023-07-13T07:07:54;100641.00;;;18.40
80581;BMP180;1474;51.460;7.150;2023-07-13T07:10:21;100640.00;;;18.50
80581;BMP180;1474;51.460;7.150;2023-07-13T07:12:47;100631.00;;;18.40
80581;BMP180;1474;51.460;7.150;2023-07-13T07:15:13;100640.00;;;18.60
80581;BMP180;1474;51.460;7.150;2023-07-13T07:17:39;100645.00;;;18.80
80581;BMP180;1474;51.460;7.150;2023-07-13T07:20:06;100644.00;;;18.60
80581;BMP180;1474;51.460;7.150;2023-07-13T07:22:33;100650.00;;;19.00
80581;BMP180;1474;51.460;7.150;2023-07-13T07:25:00;100647.00;;;19.00
80581;BMP180;1474;51.460;7.150;2023-07-13T07:27:26;100642.00;;;19.10
80581;BMP180;1474;51.460;7.150;2023-07-13T07:29:52;100646.00;;;19.50
80581;BMP180;1474;51.460;7.150;2023-07-13T07:32:19;100644.00;;;19.30
80581;BMP180;1474;51.460;7.150;2023-07-13T07:34:45;100639.00;;;19.40
80581;BMP180;1474;51.460;7.150;2023-07-13T07:37:13;100653.00;;;19.50
80581;BMP180;1474;51.460;7.150;2023-07-13T07:39:39;100651.00;;;19.20
80581;BMP180;1474;51.460;7.150;2023-07-13T07:42:06;100648.00;;;19.40
80581;BMP180;1474;51.460;7.150;2023-07-13T07:44:33;100627.00;;;19.60
80581;BMP180;1474;51.460;7.150;2023-07-13T07:47:00;100634.00;;;19.90
80581;BMP180;1474;51.460;7.150;2023-07-13T07:49:26;100657.00;;;19.90
80581;BMP180;1474;51.460;7.150;2023-07-13T07:51:52;100673.00;;;19.70
80581;BMP180;1474;51.460;7.150;2023-07-13T07:54:18;100649.00;;;19.60
80581;BMP180;1474;51.460;7.150;2023-07-13T07:56:44;100644.00;;;19.70
80581;BMP180;1474;51.460;7.150;2023-07-13T07:59:10;100640.00;;;20.30
80581;BMP180;1474;51.460;7.150;2023-07-13T08:01:37;100650.00;;;20.30
80581;BMP180;1474;51.460;7.150;2023-07-13T08:04:03;100655.00;;;20.30
80581;BMP180;1474;51.460;7.150;2023-07-13T08:06:29;100656.00;;;20.30
80581;BMP180;1474;51.460;7.150;2023-07-13T08:08:55;100645.00;;;20.40
80581;BMP180;1474;51.460;7.150;2023-07-13T08:11:22;100649.00;;;20.90
80581;BMP180;1474;51.460;7.150;2023-07-13T08:13:47;100648.00;;;21.00
80581;BMP180;1474;51.460;7.150;2023-07-13T08:16:14;100652.00;;;20.90
80581;BMP180;1474;51.460;7.150;2023-07-13T08:18:40;100659.00;;;20.60
80581;BMP180;1474;51.460;7.150;2023-07-13T08:21:08;100640.00;;;20.40
80581;BMP180;1474;51.460;7.150;2023-07-13T08:23:35;100647.00;;;20.80
80581;BMP180;1474;51.460;7.150;2023-07-13T08:26:02;100648.00;;;21.10
80581;BMP180;1474;51.460;7.150;2023-07-13T08:28:30;100639.00;;;21.20
80581;BMP180;1474;51.460;7.150;2023-07-13T08:31:05;100655.00;;;21.40
80581;BMP180;1474;51.460;7.150;2023-07-13T08:33:31;100647.00;;;21.50
80581;BMP180;1474;51.460;7.150;2023-07-13T08:35:57;100645.00;;;21.50
80581;BMP180;1474;51.460;7.150;2023-07-13T08:38:23;100631.00;;;21.80
80581;BMP180;1474;51.460;7.150;2023-07-13T08:40:56;100640.00;;;22.30
80581;BMP180;1474;51.460;7.150;2023-07-13T08:43:36;100644.00;;;22.00
80581;BMP180;1474;51.460;7.150;2023-07-13T08:48:59;100644.00;;;21.40
80581;BMP180;1474;51.460;7.150;2023-07-13T08:54:12;100647.00;;;21.90
80581;BMP180;1474;51.460;7.150;2023-07-13T08:56:43;100634.00;;;21.60
80581;BMP180;1474;51.460;7.150;2023-07-13T08:59:18;100673.00;;;21.60
80581;BMP180;1474;51.460;7.150;2023-07-13T09:10:32;100633.00;;;21.70
80581;BMP180;1474;51.460;7.150;2023-07-13T09:13:29;100625.00;;;21.90
80581;BMP180;1474;51.460;7.150;2023-07-13T09:15:59;100639.00;;;21.80
80581;BMP180;1474;51.460;7.150;2023-07-13T09:18:36;100622.00;;;22.00
80581;BMP180;1474;51.460;7.150;2023-07-13T09:21:10;100635.00;;;22.60
80581;BMP180;1474;51.460;7.150;2023-07-13T09:23:38;100671.00;;;22.50
80581;BMP180;1474;51.460;7.150;2023-07-13T09:26:18;100636.00;;;22.70
80581;BMP180;1474;51.460;7.150;2023-07-13T09:28:49;100628.00;;;22.70
80581;BMP180;1474;51.460;7.150;2023-07-13T09:31:38;100634.00;;;22.50
80581;BMP180;1474;51.460;7.150;2023-07-13T09:34:13;100623.00;;;22.70
80581;BMP180;1474;51.460;7.150;2023-07-13T09:36:39;100629.00;;;22.50
80581;BMP180;1474;51.460;7.150;2023-07-13T09:47:20;100634.00;;;23.40
80581;BMP180;1474;51.460;7.150;2023-07-13T09:49:59;100666.00;;;22.30
80581;BMP180;1474;51.460;7.150;2023-07-13T09:52:27;100666.00;;;22.30
80581;BMP180;1474;51.460;7.150;2023-07-13T09:54:54;100674.00;;;22.20
80581;BMP180;1474;51.460;7.150;2023-07-13T09:57:27;100666.00;;;22.50
80581;BMP180;1474;51.460;7.150;2023-07-13T09:59:55;100654.00;;;22.30
80581;BMP180;1474;51.460;7.150;2023-07-13T10:02:32;100641.00;;;22.80
80581;BMP180;1474;51.460;7.150;2023-07-13T10:05:11;100668.00;;;22.70
80581;BMP180;1474;51.460;7.150;2023-07-13T10:07:43;100666.00;;;22.60
80581;BMP180;1474;51.460;7.150;2023-07-13T10:10:17;100673.00;;;22.20
80581;BMP180;1474;51.460;7.150;2023-07-13T10:12:46;100663.00;;;22.30
80581;BMP180;1474;51.460;7.150;2023-07-13T10:15:21;100649.00;;;23.00
80581;BMP180;1474;51.460;7.150;2023-07-13T10:17:49;100668.00;;;22.50
80581;BMP180;1474;51.460;7.150;2023-07-13T10:20:16;100642.00;;;23.00
80581;BMP180;1474;51.460;7.150;2023-07-13T10:23:01;100666.00;;;24.00
80581;BMP180;1474;51.460;7.150;2023-07-13T10:25:36;100683.00;;;22.90
80581;BMP180;1474;51.460;7.150;2023-07-13T10:28:45;100684.00;;;22.20
80581;BMP180;1474;51.460;7.150;2023-07-13T10:31:15;100693.00;;;22.00
80581;BMP180;1474;51.460;7.150;2023-07-13T10:33:42;100684.00;;;21.70
80581;BMP180;1474;51.460;7.150;2023-07-13T10:36:20;100675.00;;;21.60
80581;BMP180;1474;51.460;7.150;2023-07-13T10:38:50;100684.00;;;21.60
80581;BMP180;1474;51.460;7.150;2023-07-13T10:41:21;100674.00;;;21.70
80581;BMP180;1474;51.460;7.150;2023-07-13T10:43:52;100674.00;;;22.40
80581;BMP180;1474;51.460;7.150;2023-07-13T10:46:24;100626.00;;;22.50
80581;BMP180;1474;51.460;7.150;2023-07-13T10:49:01;100688.00;;;22.30
80581;BMP180;1474;51.460;7.150;2023-07-13T10:51:29;100682.00;;;22.30
80581;BMP180;1474;51.460;7.150;2023-07-13T10:54:26;100638.00;;;23.50
80581;BMP180;1474;51.460;7.150;2023-07-13T10:57:17;100690.00;;;23.20
80581;BMP180;1474;51.460;7.150;2023-07-13T11:00:16;100689.00;;;22.90
80581;BMP180;1474;51.460;7.150;2023-07-13T11:02:43;100688.00;;;22.40
80581;BMP180;1474;51.460;7.150;2023-07-13T11:16:46;100655.00;;;23.00
80581;BMP180;1474;51.460;7.150;2023-07-13T11:24:57;100653.00;;;23.20
80581;BMP180;1474;51.460;7.150;2023-07-13T11:27:46;100660.00;;;24.20
80581;BMP180;1474;51.460;7.150;2023-07-13T11:33:20;100703.00;;;23.00
80581;BMP180;1474;51.460;7.150;2023-07-13T11:36:13;100714.00;;;22.40
80581;BMP180;1474;51.460;7.150;2023-07-13T11:38:49;100702.00;;;22.30
80581;BMP180;1474;51.460;7.150;2023-07-13T11:41:21;100701.00;;;22.10
80581;BMP180;1474;51.460;7.150;2023-07-13T11:43:55;100702.00;;;22.20
80581;BMP180;1474;51.460;7.150;2023-07-13T11:46:27;100654.00;;;22.30
80581;BMP180;1474;51.460;7.150;2023-07-13T11:48:54;100655.00;;;23.10
80581;BMP180;1474;51.460;7.150;2023-07-13T11:51:31;100662.00;;;23.60
80581;BMP180;1474;51.460;7.150;2023-07-13T11:54:05;100659.00;;;24.10
80581;BMP180;1474;51.460;7.150;2023-07-13T11:56:31;100651.00;;;24.00
80581;BMP180;1474;51.460;7.150;2023-07-13T11:59:07;100640.00;;;23.80
80581;BMP180;1474;51.460;7.150;2023-07-13T12:01:42;100661.00;;;24.20
80581;BMP180;1474;51.460;7.150;2023-07-13T12:04:26;100656.00;;;24.20
80581;BMP180;1474;51.460;7.150;2023-07-13T12:07:04;100654.00;;;24.60
80581;BMP180;1474;51.460;7.150;2023-07-13T12:09:30;100642.00;;;24.30
80581;BMP180;1474;51.460;7.150;2023-07-13T12:11:57;100643.00;;;24.80
80581;BMP180;1474;51.460;7.150;2023-07-13T12:14:26;100683.00;;;24.80
80581;BMP180;1474;51.460;7.150;2023-07-13T12:16:53;100679.00;;;23.40
80581;BMP180;1474;51.460;7.150;2023-07-13T12:19:26;100625.00;;;23.70
80581;BMP180;1474;51.460;7.150;2023-07-13T12:21:56;100672.00;;;24.00
80581;BMP180;1474;51.460;7.150;2023-07-13T12:24:23;100634.00;;;24.10
80581;BMP180;1474;51.460;7.150;2023-07-13T12:26:59;100679.00;;;23.90
80581;BMP180;1474;51.460;7.150;2023-07-13T12:29:31;100675.00;;;23.70
80581;BMP180;1474;51.460;7.150;2023-07-13T12:31:57;100637.00;;;24.00
80581;BMP180;1474;51.460;7.150;2023-07-13T12:34:26;100628.00;;;25.10
80581;BMP180;1474;51.460;7.150;2023-07-13T12:36:59;100677.00;;;24.90
80581;BMP180;1474;51.460;7.150;2023-07-13T12:39:46;100658.00;;;23.90
80581;BMP180;1474;51.460;7.150;2023-07-13T12:42:27;100620.00;;;24.70
80581;BMP180;1474;51.460;7.150;2023-07-13T12:45:01;100625.00;;;23.90
80581;BMP180;1474;51.460;7.150;2023-07-13T12:47:28;100634.00;;;25.10
80581;BMP180;1474;51.460;7.150;2023-07-13T12:49:59;100634.00;;;24.30
80581;BMP180;1474;51.460;7.150;2023-07-13T12:52:34;100668.00;;;24.90
80581;BMP180;1474;51.460;7.150;2023-07-13T12:55:22;100626.00;;;24.50
80581;BMP180;1474;51.460;7.150;2023-07-13T12:57:55;100677.00;;;24.20
80581;BMP180;1474;51.460;7.150;2023-07-13T13:00:37;100635.00;;;24.30
80581;BMP180;1474;51.460;7.150;2023-07-13T13:03:30;100660.00;;;24.70
80581;BMP180;1474;51.460;7.150;2023-07-13T13:08:49;100682.00;;;23.40
80581;BMP180;1474;51.460;7.150;2023-07-13T13:11:20;100685.00;;;23.10
80581;BMP180;1474;51.460;7.150;2023-07-13T13:13:46;100691.00;;;22.90
80581;BMP180;1474;51.460;7.150;2023-07-13T13:16:22;100701.00;;;22.80
80581;BMP180;1474;51.460;7.150;2023-07-13T13:18:49;100702.00;;;22.60
80581;BMP180;1474;51.460;7.150;2023-07-13T13:21:17;100711.00;;;22.50
80581;BMP180;1474;51.460;7.150;2023-07-13T13:23:44;100715.00;;;22.00
80581;BMP180;1474;51.460;7.150;2023-07-13T13:26:14;100723.00;;;21.90
80581;BMP180;1474;51.460;7.150;2023-07-13T13:28:42;100736.00;;;21.70
80581;BMP180;1474;51.460;7.150;2023-07-13T13:31:10;100746.00;;;21.40
80581;BMP180;1474;51.460;7.150;2023-07-13T13:33:44;100763.00;;;20.40
80581;BMP180;1474;51.460;7.150;2023-07-13T13:36:21;100768.00;;;19.50
80581;BMP180;1474;51.460;7.150;2023-07-13T13:38:50;100762.00;;;19.40
80581;BMP180;1474;51.460;7.150;2023-07-13T13:41:16;100774.00;;;19.20
80581;BMP180;1474;51.460;7.150;2023-07-13T13:43:43;100775.00;;;18.90
80581;BMP180;1474;51.460;7.150;2023-07-13T13:46:21;100766.00;;;18.50
80581;BMP180;1474;51.460;7.150;2023-07-13T13:48:48;100758.00;;;18.60
80581;BMP180;1474;51.460;7.150;2023-07-13T13:51:22;100748.00;;;18.60
80581;BMP180;1474;51.460;7.150;2023-07-13T13:53:50;100742.00;;;18.60
80581;BMP180;1474;51.460;7.150;2023-07-13T13:56:18;100734.00;;;18.70
80581;BMP180;1474;51.460;7.150;2023-07-13T13:58:44;100734.00;;;18.90
80581;BMP180;1474;51.460;7.150;2023-07-13T14:01:20;100734.00;;;18.70
80581;BMP180;1474;51.460;7.150;2023-07-13T14:03:46;100730.00;;;19.10
80581;BMP180;1474;51.460;7.150;2023-07-13T14:06:15;100722.00;;;19.50
80581;BMP180;1474;51.460;7.150;2023-07-13T14:08:42;100716.00;;;19.80
80581;BMP180;1474;51.460;7.150;2023-07-13T14:11:17;100707.00;;;20.00
80581;BMP180;1474;51.460;7.150;2023-07-13T14:13:54;100719.00;;;20.60
80581;BMP180;1474;51.460;7.150;2023-07-13T14:16:24;100731.00;;;20.10
80581;BMP180;1474;51.460;7.150;2023-07-13T14:18:53;100735.00;;;18.90
80581;BMP180;1474;51.460;7.150;2023-07-13T14:21:21;100738.00;;;18.70
80581;BMP180;1474;51.460;7.150;2023-07-13T14:23:49;100742.00;;;18.80
80581;BMP180;1474;51.460;7.150;2023-07-13T14:26:23;100746.00;;;18.90
80581;BMP180;1474;51.460;7.150;2023-07-13T14:28:55;100766.00;;;18.60
80581;BMP180;1474;51.460;7.150;2023-07-13T14:31:24;100784.00;;;18.40
80581;BMP180;1474;51.460;7.150;2023-07-13T14:33:50;100777.00;;;17.70
80581;BMP180;1474;51.460;7.150;2023-07-13T14:36:33;100771.00;;;18.10
80581;BMP180;1474;51.460;7.150;2023-07-13T14:39:10;100760.00;;;18.00
80581;BMP180;1474;51.460;7.150;2023-07-13T14:41:37;100748.00;;;18.10
80581;BMP180;1474;51.460;7.150;2023-07-13T14:44:14;100753.00;;;18.60
80581;BMP180;1474;51.460;7.150;2023-07-13T14:46:42;100760.00;;;18.90
80581;BMP180;1474;51.460;7.150;2023-07-13T14:49:34;100760.00;;;18.50
80581;BMP180;1474;51.460;7.150;2023-07-13T14:52:20;100765.00;;;18.50
80581;BMP180;1474;51.460;7.150;2023-07-13T14:54:46;100756.00;;;18.30
80581;BMP180;1474;51.460;7.150;2023-07-13T14:57:17;100742.00;;;18.70
80581;BMP180;1474;51.460;7.150;2023-07-13T14:59:44;100725.00;;;19.00
80581;BMP180;1474;51.460;7.150;2023-07-13T15:02:17;100729.00;;;18.90
80581;BMP180;1474;51.460;7.150;2023-07-13T15:04:44;100730.00;;;19.20
80581;BMP180;1474;51.460;7.150;2023-07-13T15:07:11;100730.00;;;19.20
80581;BMP180;1474;51.460;7.150;2023-07-13T15:09:39;100724.00;;;19.10